Time;durP1;ratioP1;P1;durP2;ratioP2;P2;SDS_P1;SDS_P2;PMS_P1;PMS_P2;Temp;Humidity;BMP_temperature;BMP_pressure;BME280_temperature;BME280_humidity;BME280_pressure;Samples;Min_cycle;Max_cycle;Signal;HPM_P1;HPM_P2
2023/08/02 00:06:33;;;;;;;22.45;18.17;;;14.30;99.90;;;;;;25594952;23;20005;-55
2023/08/02 00:16:35;;;;;;;22.52;18.08;;;14.70;99.90;;;;;;25592722;23;20005;-56
2023/08/02 00:26:37;;;;;;;19.33;16.48;;;14.90;99.90;;;;;;25594005;23;20036;-57
2023/08/02 00:36:39;;;;;;;25.17;18.92;;;14.90;99.90;;;;;;25593184;23;20013;-56
2023/08/02 00:46:40;;;;;;;26.38;19.35;;;14.70;99.90;;;;;;25593025;23;20005;-55
2023/08/02 00:56:43;;;;;;;22.40;17.85;;;14.40;99.90;;;;;;25592772;23;20345;-56
2023/08/02 01:06:53;;;;;;;23.13;16.90;;;14.20;99.90;;;;;;25592127;23;20063;-56
2023/08/02 01:16:56;;;;;;;25.75;19.17;;;14.00;99.90;;;;;;25633094;23;20013;-56
2023/08/02 01:27:04;;;;;;;26.55;20.30;;;13.90;99.90;;;;;;25591871;23;20333;-56
2023/08/02 01:37:06;;;;;;;27.42;21.15;;;13.90;99.90;;;;;;25600089;23;20021;-48
2023/08/02 01:47:08;;;;;;;24.48;18.20;;;13.60;99.90;;;;;;25590889;23;20064;-51
2023/08/02 01:57:09;;;;;;;25.05;19.67;;;13.50;99.90;;;;;;25590653;23;20067;-48
2023/08/02 02:07:12;;;;;;;29.10;22.98;;;13.40;99.90;;;;;;25563879;23;20005;-55
2023/08/02 02:17:14;;;;;;;33.35;25.25;;;13.40;99.90;;;;;;25563383;23;20380;-56
2023/08/02 02:27:16;;;;;;;31.38;23.00;;;13.50;99.90;;;;;;25589306;23;20009;-55
2023/08/02 02:37:18;;;;;;;26.25;20.60;;;14.00;99.90;;;;;;25589218;23;20005;-52
2023/08/02 02:47:21;;;;;;;29.20;22.90;;;14.50;99.90;;;;;;25588844;23;20009;-56
2023/08/02 02:57:22;;;;;;;28.77;22.75;;;14.60;99.90;;;;;;25588865;23;20075;-54
2023/08/02 03:07:24;;;;;;;29.98;21.85;;;14.70;99.90;;;;;;25588626;23;20063;-49
2023/08/02 03:17:27;;;;;;;25.38;20.52;;;14.80;99.90;;;;;;25589899;23;20013;-56
2023/08/02 03:27:29;;;;;;;22.23;18.27;;;14.90;99.90;;;;;;25588468;23;20032;-55
2023/08/02 03:37:31;;;;;;;25.42;20.98;;;14.80;99.90;;;;;;25593963;23;20495;-56
2023/08/02 03:47:33;;;;;;;26.40;21.27;;;14.80;99.90;;;;;;25595574;23;20005;-54
2023/08/02 03:57:35;;;;;;;29.10;20.77;;;14.80;99.90;;;;;;25569262;23;20301;-56
2023/08/02 04:07:36;;;;;;;26.25;19.70;;;14.80;99.90;;;;;;25594624;23;20072;-45
2023/08/02 04:17:38;;;;;;;23.15;18.60;;;14.90;99.90;;;;;;25594406;23;20005;-56
2023/08/02 04:27:40;;;;;;;20.75;17.40;;;15.00;99.90;;;;;;25594472;23;20374;-55
2023/08/02 04:37:42;;;;;;;19.75;16.05;;;15.10;99.90;;;;;;25593416;23;20013;-56
2023/08/02 04:47:44;;;;;;;18.23;16.08;;;15.20;99.90;;;;;;25593039;23;20377;-56
2023/08/02 04:57:47;;;;;;;15.93;13.27;;;15.40;99.90;;;;;;25592743;23;20001;-56
2023/08/02 05:07:49;;;;;;;17.25;14.05;;;15.80;99.90;;;;;;25592791;23;20473;-55
2023/08/02 05:17:50;;;;;;;15.55;13.90;;;16.50;99.90;;;;;;25591911;23;20012;-57
2023/08/02 05:27:53;;;;;;;13.48;12.07;;;16.90;99.90;;;;;;25591697;23;20001;-46
2023/08/02 05:37:55;;;;;;;14.63;12.75;;;16.70;99.90;;;;;;25592247;23;20013;-56
2023/08/02 05:47:58;;;;;;;15.80;13.30;;;16.70;99.90;;;;;;25590845;23;20017;-56
2023/08/02 05:58:00;;;;;;;15.07;12.90;;;16.60;99.90;;;;;;25562689;23;20005;-54
2023/08/02 06:08:02;;;;;;;19.33;14.80;;;16.80;99.90;;;;;;25590264;23;20064;-56
2023/08/02 06:18:04;;;;;;;15.57;13.05;;;17.30;99.90;;;;;;25589764;23;20027;-56
2023/08/02 06:28:05;;;;;;;11.73;10.52;;;17.90;99.90;;;;;;25589702;23;20011;-56
2023/08/02 06:38:07;;;;;;;12.45;10.32;;;18.00;99.90;;;;;;25589296;23;20017;-50
2023/08/02 06:48:09;;;;;;;12.88;8.98;;;18.40;99.90;;;;;;25589032;23;20036;-56
2023/08/02 06:58:11;;;;;;;8.13;7.30;;;19.10;99.90;;;;;;25588815;23;20079;-49
2023/08/02 07:08:13;;;;;;;10.07;8.25;;;20.20;99.90;;;;;;25591320;23;20001;-56
2023/08/02 07:18:15;;;;;;;8.32;7.43;;;20.30;99.90;;;;;;25570362;23;20005;-47
2023/08/02 07:28:17;;;;;;;7.88;7.07;;;20.50;99.90;;;;;;25596098;23;20324;-57
2023/08/02 07:38:18;;;;;;;9.52;8.63;;;20.40;99.90;;;;;;25595764;23;20336;-57
2023/08/02 07:48:20;;;;;;;9.63;7.90;;;20.40;99.90;;;;;;25595260;23;20005;-56
2023/08/02 07:58:22;;;;;;;10.88;6.45;;;20.20;99.90;;;;;;25595225;23;20005;-50
2023/08/02 08:08:24;;;;;;;7.10;6.38;;;21.50;99.90;;;;;;25568688;23;20310;-50
2023/08/02 08:18:26;;;;;;;8.50;7.70;;;21.70;99.90;;;;;;25594092;23;20013;-58
2023/08/02 08:28:29;;;;;;;9.65;8.30;;;20.50;99.90;;;;;;25595428;23;20480;-58
2023/08/02 08:38:30;;;;;;;9.13;8.32;;;19.40;99.90;;;;;;25593504;23;20009;-57
2023/08/02 08:48:36;;;;;;;9.98;9.05;;;18.90;99.90;;;;;;25593166;23;20005;-57
2023/08/02 08:58:38;;;;;;;9.30;8.20;;;19.30;99.90;;;;;;25592291;23;20009;-57
2023/08/02 09:08:42;;;;;;;10.23;7.72;;;19.20;99.90;;;;;;25592408;23;20001;-56
2023/08/02 09:18:48;;;;;;;8.00;7.20;;;19.60;99.90;;;;;;25591204;23;20020;-57
2023/08/02 09:29:01;;;;;;;9.40;8.10;;;20.10;99.90;;;;;;25632016;23;20091;-58
2023/08/02 09:39:10;;;;;;;9.88;8.98;;;19.90;99.90;;;;;;25592522;23;20072;-58
2023/08/02 09:49:20;;;;;;;15.77;10.45;;;19.80;99.90;;;;;;25631567;23;20017;-60
2023/08/02 09:59:25;;;;;;;13.50;10.25;;;19.50;99.90;;;;;;25631328;23;20009;-58
2023/08/02 10:09:30;;;;;;;13.85;12.45;;;19.30;99.90;;;;;;25563621;23;20389;-57
2023/08/02 10:19:34;;;;;;;13.13;11.70;;;19.50;99.90;;;;;;25591015;23;20394;-57
2023/08/02 10:29:37;;;;;;;14.15;12.40;;;19.90;99.90;;;;;;25562752;23;20009;-57
2023/08/02 10:39:45;;;;;;;14.93;12.88;;;19.90;99.90;;;;;;25588401;23;20013;-56
2023/08/02 10:49:47;;;;;;;12.30;10.98;;;19.70;99.90;;;;;;25587644;23;20048;-57
2023/08/02 10:59:49;;;;;;;14.43;12.93;;;21.00;99.90;;;;;;25588523;23;20005;-56
2023/08/02 11:09:54;;;;;;;15.60;13.50;;;21.30;99.90;;;;;;25588826;23;20085;-57
2023/08/02 11:19:56;;;;;;;13.93;11.32;;;20.90;99.90;;;;;;25588394;23;20384;-57
2023/08/02 11:30:07;;;;;;;13.25;11.00;;;20.90;99.90;;;;;;25588174;23;20538;-57
2023/08/02 11:40:09;;;;;;;14.10;9.13;;;21.30;99.90;;;;;;25597253;23;20016;-57
2023/08/02 11:50:24;;;;;;;11.40;8.60;;;22.50;99.90;;;;;;25561485;23;20012;-57
2023/08/02 12:00:26;;;;;;;10.68;8.68;;;22.40;99.90;;;;;;25635511;23;20055;-57
2023/08/02 12:10:28;;;;;;;9.73;8.60;;;22.50;99.90;;;;;;25595049;23;20009;-57
2023/08/02 12:20:32;;;;;;;10.98;7.15;;;22.80;99.90;;;;;;25594254;23;20012;-57
2023/08/02 12:30:34;;;;;;;10.75;7.18;;;23.30;99.90;;;;;;25593893;23;20000;-58
2023/08/02 12:40:36;;;;;;;9.80;7.25;;;23.50;99.90;;;;;;25593690;23;20068;-59
2023/08/02 12:50:40;;;;;;;8.15;6.93;;;24.00;99.90;;;;;;25594298;23;20121;-59
2023/08/02 13:00:42;;;;;;;12.32;7.97;;;24.20;99.90;;;;;;25592537;23;20433;-56
2023/08/02 13:10:45;;;;;;;10.40;8.32;;;23.40;99.90;;;;;;25592239;23;20005;-57
2023/08/02 13:20:47;;;;;;;9.70;8.70;;;23.20;99.90;;;;;;25591630;23;20433;-57
2023/08/02 13:30:48;;;;;;;13.52;10.07;;;22.30;99.90;;;;;;25591123;23;20009;-58
2023/08/02 13:40:51;;;;;;;14.45;12.02;;;21.40;99.90;;;;;;25591120;23;20017;-57
2023/08/02 13:50:53;;;;;;;13.38;9.75;;;20.90;99.90;;;;;;25589158;23;20005;-56
2023/08/02 14:00:55;;;;;;;14.80;9.85;;;20.70;99.90;;;;;;25589988;23;20503;-57
2023/08/02 14:10:57;;;;;;;13.85;10.40;;;21.10;99.90;;;;;;25590282;23;20005;-57
2023/08/02 14:20:58;;;;;;;19.05;11.05;;;21.20;99.90;;;;;;25589099;23;20033;-57
2023/08/02 14:31:00;;;;;;;13.23;10.13;;;21.60;99.90;;;;;;25589701;23;20309;-57
2023/08/02 14:41:02;;;;;;;14.07;10.50;;;21.40;99.90;;;;;;25589370;23;20017;-57
2023/08/02 14:51:04;;;;;;;10.32;8.50;;;21.50;99.90;;;;;;25589170;23;20004;-56
2023/08/02 15:01:06;;;;;;;13.65;9.82;;;22.50;99.90;;;;;;25562632;23;20060;-58
2023/08/02 15:11:08;;;;;;;16.25;11.70;;;23.80;99.90;;;;;;25589039;23;20005;-58
2023/08/02 15:21:10;;;;;;;20.30;14.50;;;22.60;99.90;;;;;;25588229;23;20063;-58
2023/08/02 15:31:12;;;;;;;19.75;14.60;;;21.90;99.90;;;;;;25592252;23;20445;-58
2023/08/02 15:41:14;;;;;;;17.17;13.25;;;21.00;99.90;;;;;;25595820;23;20502;-57
2023/08/02 15:51:16;;;;;;;18.73;13.38;;;20.70;99.90;;;;;;25595627;23;20005;-58
2023/08/02 16:01:18;;;;;;;16.00;12.90;;;20.50;99.90;;;;;;25595351;23;20012;-57
2023/08/02 16:11:20;;;;;;;17.10;13.18;;;20.30;99.90;;;;;;25595148;23;20005;-58
2023/08/02 16:21:22;;;;;;;15.85;13.27;;;20.10;99.90;;;;;;25594350;23;20008;-57
2023/08/02 16:31:24;;;;;;;21.10;15.68;;;19.70;99.90;;;;;;25593919;23;20008;-58
2023/08/02 16:41:26;;;;;;;20.35;14.18;;;19.50;99.90;;;;;;25593797;23;20013;-58
2023/08/02 16:51:28;;;;;;;18.13;15.65;;;19.20;99.90;;;;;;25593495;23;20005;-57
2023/08/02 17:01:30;;;;;;;20.52;14.68;;;19.10;99.90;;;;;;25592973;23;20014;-57
2023/08/02 17:11:32;;;;;;;20.20;15.13;;;19.00;99.90;;;;;;25592724;23;20005;-58
2023/08/02 17:21:36;;;;;;;16.65;14.20;;;18.90;99.90;;;;;;25592212;23;20013;-58
2023/08/02 17:31:38;;;;;;;20.88;15.90;;;18.90;99.90;;;;;;25591893;23;20303;-58
2023/08/02 17:41:40;;;;;;;17.65;13.57;;;18.80;99.90;;;;;;25590053;23;20013;-51
2023/08/02 17:51:42;;;;;;;15.88;13.40;;;18.80;99.90;;;;;;25590603;23;20005;-49
2023/08/02 18:01:45;;;;;;;16.98;13.75;;;18.60;99.90;;;;;;25590699;23;20059;-58
2023/08/02 18:11:47;;;;;;;18.63;13.82;;;18.50;99.90;;;;;;25590577;23;20001;-58
2023/08/02 18:21:54;;;;;;;20.13;13.95;;;18.20;99.90;;;;;;25591336;23;20305;-57
2023/08/02 18:31:56;;;;;;;19.85;15.75;;;18.20;99.90;;;;;;25630582;23;20021;-57
2023/08/02 18:41:58;;;;;;;18.33;14.88;;;18.00;99.90;;;;;;25589423;23;20068;-45
2023/08/02 18:52:01;;;;;;;19.10;14.30;;;17.90;99.90;;;;;;25589001;23;20009;-57
2023/08/02 19:02:03;;;;;;;19.05;12.57;;;17.80;99.90;;;;;;25590426;23;20324;-58
2023/08/02 19:12:17;;;;;;;17.35;11.50;;;17.80;99.90;;;;;;25597238;23;20005;-58
2023/08/02 19:22:23;;;;;;;16.70;10.63;;;17.60;99.90;;;;;;25611426;23;20009;-57
2023/08/02 19:32:25;;;;;;;12.38;7.63;;;17.50;99.90;;;;;;25611043;23;20016;-57
2023/08/02 19:42:28;;;;;;;10.25;7.38;;;17.40;99.90;;;;;;25595747;23;20080;-57
2023/08/02 19:52:34;;;;;;;11.23;7.40;;;17.40;99.90;;;;;;25568972;23;20005;-57
2023/08/02 20:02:37;;;;;;;11.18;7.20;;;17.40;99.90;;;;;;25543746;23;20020;-57
2023/08/02 20:12:39;;;;;;;10.00;6.50;;;17.50;99.90;;;;;;25594470;23;20009;-58
2023/08/02 20:22:44;;;;;;;12.20;8.20;;;17.50;99.90;;;;;;25594489;23;20001;-57
2023/08/02 20:32:51;;;;;;;18.35;8.75;;;17.30;99.90;;;;;;25593749;23;20005;-58
2023/08/02 20:42:57;;;;;;;11.25;7.85;;;17.20;99.90;;;;;;25634997;23;20016;-57
2023/08/02 20:52:59;;;;;;;12.68;8.18;;;17.10;99.90;;;;;;25634300;23;20009;-58
2023/08/02 21:03:01;;;;;;;16.13;9.43;;;16.90;99.90;;;;;;25592768;23;20001;-57
2023/08/02 21:13:03;;;;;;;15.63;8.43;;;16.80;99.90;;;;;;25592627;23;20005;-58
2023/08/02 21:23:05;;;;;;;15.95;8.82;;;16.90;99.90;;;;;;25593142;23;20028;-57
2023/08/02 21:33:10;;;;;;;17.73;8.73;;;17.10;99.90;;;;;;25591151;23;20009;-47
2023/08/02 21:43:18;;;;;;;13.55;8.55;;;17.10;99.90;;;;;;25591245;23;20309;-49
2023/08/02 21:53:23;;;;;;;13.20;8.13;;;17.10;99.90;;;;;;25632055;23;20009;-58
2023/08/02 22:03:25;;;;;;;9.88;7.70;;;17.20;99.90;;;;;;25590224;23;20376;-57
2023/08/02 22:13:27;;;;;;;13.27;8.65;;;17.20;99.90;;;;;;25590467;23;20444;-57
2023/08/02 22:23:29;;;;;;;13.60;8.63;;;17.30;99.90;;;;;;25590115;23;20009;-57
2023/08/02 22:33:31;;;;;;;12.77;8.27;;;17.40;99.90;;;;;;25588853;23;20016;-57
2023/08/02 22:43:33;;;;;;;13.95;8.50;;;17.40;99.90;;;;;;25589386;23;20149;-57
2023/08/02 22:53:35;;;;;;;15.30;8.90;;;17.40;99.90;;;;;;25589055;23;20437;-58
2023/08/02 23:03:39;;;;;;;16.58;8.48;;;17.40;99.90;;;;;;25589139;23;20013;-57
2023/08/02 23:13:44;;;;;;;16.33;9.70;;;17.20;99.90;;;;;;25587621;23;20009;-57
2023/08/02 23:23:49;;;;;;;14.80;8.82;;;16.90;99.90;;;;;;25588312;23;20064;-57
2023/08/02 23:33:52;;;;;;;11.80;7.43;;;16.80;99.90;;;;;;25624643;23;20322;-57
2023/08/02 23:43:54;;;;;;;10.25;6.40;;;16.90;99.90;;;;;;25588439;23;20324;-58
2023/08/02 23:53:59;;;;;;;9.20;5.80;;;17.00;99.90;;;;;;25592994;23;20005;-58
